Latest Weather Observations for Mortlake

IDV60801

Issued at 4:32 pm EST Friday 26 August 2016 (issued every 30 minutes, with the page automatically refreshed every 10 minutes)

About weather observations | Map of weather stations | Latest weather observations for VIC | Other Formats
Station Details ID: 090176 Name: MORTLAKE RACECOURSE Lat: -38.07 Lon: 142.77 Height: 130.0 m
Data from the previous 72 hours. | See also: Recent months at Mortlake
Date/Time
EST
Temp
°C
App
Temp
°C
Dew
Point
°C
Rel
Hum
%
Delta-T
°C
Wind Press
QNH
hPa
Press
MSL
hPa
Rain since
9am
mm
Dir  Spd
km/h
Gust
km/h
Spd
kts
Gust
kts
26/04:30pm 10.1 7.4 7.2 82 1.4 WNW 11 17 6 9 1020.4 1020.6 0.0
26/04:00pm 10.4 5.7 6.2 75 2.0 WNW 20 33 11 18 1020.4 1020.6 0.0
26/03:30pm 11.5 7.1 6.4 71 2.4 WNW 19 24 10 13 1020.3 1020.5 0.0
26/03:00pm 11.2 7.7 7.1 76 2.0 WNW 15 22 8 12 1020.4 1020.6 0.0
26/02:30pm 10.9 7.6 6.5 74 2.1 W 13 20 7 11 1020.7 1020.9 0.0
26/02:00pm 10.6 5.8 5.4 70 2.4 W 20 30 11 16 1020.7 1020.9 0.0
26/01:30pm 11.3 7.1 5.8 69 2.6 WNW 17 26 9 14 1020.8 1021.0 0.0
26/01:00pm 11.9 6.8 6.2 68 2.7 WNW 22 30 12 16 1021.0 1021.2 0.0
26/12:30pm 12.2 7.4 5.8 65 3.0 WNW 20 30 11 16 1021.2 1021.5 0.0
26/12:00pm 11.2 6.4 5.5 68 2.6 WNW 20 32 11 17 1021.7 1022.0 0.0
26/11:30am 10.9 6.1 4.8 66 2.8 W 19 26 10 14 1022.1 1022.3 0.0
26/11:00am 10.6 6.1 6.0 73 2.1 WNW 19 24 10 13 1022.1 1022.3 0.0
26/10:30am 10.4 6.5 6.9 79 1.7 NW 17 24 9 13 1022.1 1022.3 0.0
26/10:00am 9.1 5.1 6.7 85 1.1 WNW 17 22 9 12 1022.4 1022.6 0.0
26/09:30am 8.0 4.3 6.5 90 0.7 NW 15 20 8 11 1022.6 1022.8 0.0
26/09:00am 7.5 5.1 7.2 98 0.1 NW 9 13 5 7 1022.4 1022.6 0.6
26/08:30am 6.7 3.8 6.7 100 0.0 NW 11 13 6 7 1022.2 1022.4 0.6
26/08:00am 6.1 3.5 6.1 100 0.0 NW 9 13 5 7 1022.0 1022.2 0.6
26/07:30am 5.7 3.0 5.7 100 0.0 NW 9 9 5 5 1021.9 1022.1 0.6
26/07:00am 5.3 2.5 5.3 100 0.0 NW 9 11 5 6 1021.6 1021.9 0.6
26/06:30am 4.3 1.9 4.3 100 0.0 NNW 6 7 3 4 1021.2 1021.5 0.6
26/06:00am 3.7 1.2 3.7 100 0.0 NNW 6 7 3 4 1020.9 1021.1 0.6
26/05:30am 2.6 -0.7 2.6 100 0.0 NNW 9 9 5 5 1020.8 1021.0 0.6
26/05:00am 1.2 -1.9 1.2 100 0.0 NNW 7 7 4 4 1020.5 1020.7 0.6
26/04:30am 1.4 -1.7 1.4 100 0.0 NNW 7 9 4 5 1020.2 1020.4 0.6
26/04:00am 1.3 -2.2 1.3 100 0.0 NNW 9 9 5 5 1020.0 1020.2 0.6
26/03:30am 1.6 -1.8 1.6 100 0.0 NNW 9 9 5 5 1020.0 1020.2 0.6
26/03:00am 2.1 -1.3 2.1 100 0.0 NNW 9 9 5 5 1020.0 1020.2 0.6
26/02:30am 2.1 -0.9 2.1 100 0.0 NNW 7 9 4 5 1020.2 1020.4 0.6
26/02:00am 2.6 -0.3 2.6 100 0.0 NNW 7 9 4 5 1020.4 1020.6 0.6
26/01:30am 2.4 -0.5 2.4 100 0.0 NNW 7 9 4 5 1020.5 1020.7 0.6
26/01:00am 4.1 2.0 4.1 100 0.0 NNW 4 4 2 2 1020.3 1020.5 0.6
26/12:30am 4.9 2.6 4.9 100 0.0 NNW 6 6 3 3 1020.3 1020.5 0.6
26/12:00am 4.3 1.7 4.3 100 0.0 NNW 7 9 4 5 1020.4 1020.6 0.6
 
Date/Time
EST
Temp
°C
App
Temp
°C
Dew
Point
°C
Rel
Hum
%
Delta-T
°C
Wind Press
QNH
hPa
Press
MSL
hPa
Rain since
9am
mm
Dir  Spd
km/h
Gust
km/h
Spd
kts
Gust
kts
25/11:30pm 4.8 2.9 4.8 100 0.0 W 4 4 2 2 1020.4 1020.6 0.6
25/11:00pm 6.1 3.9 6.1 100 0.0 W 7 9 4 5 1020.3 1020.5 0.6
25/10:30pm 6.6 4.7 6.6 100 0.0 W 6 7 3 4 1020.4 1020.6 0.6
25/10:00pm 6.5 4.5 6.4 99 0.0 W 6 7 3 4 1020.4 1020.6 0.6
25/09:30pm 7.3 5.3 7.2 99 0.0 SW 7 9 4 5 1020.3 1020.5 0.6
25/09:00pm 7.4 5.4 7.3 99 0.0 WSW 7 13 4 7 1020.1 1020.3 0.6
25/08:30pm 7.0 5.1 6.6 97 0.2 S 6 11 3 6 1019.9 1020.1 0.6
25/08:00pm 6.8 4.5 5.9 94 0.4 WSW 7 9 4 5 1019.7 1019.9 0.6
25/07:30pm 6.9 4.8 5.7 92 0.5 WSW 6 7 3 4 1019.4 1019.6 0.6
25/07:00pm 6.7 4.5 5.2 90 0.7 WSW 6 9 3 5 1019.1 1019.3 0.6
25/06:30pm 7.1 4.7 5.4 89 0.8 WSW 7 7 4 4 1018.8 1019.0 0.6
25/06:00pm 8.0 5.3 5.5 84 1.1 SSW 9 13 5 7 1018.4 1018.6 0.6
25/05:30pm 9.9 7.4 6.4 79 1.6 SW 9 13 5 7 1018.0 1018.2 0.6
25/05:00pm 10.6 8.4 7.8 83 1.4 WSW 9 13 5 7 1017.8 1018.0 0.6
25/04:30pm 10.3 5.7 5.7 73 2.1 SSW 19 24 10 13 1017.6 1017.8 0.6
25/04:00pm 11.6 7.0 5.7 67 2.8 SW 19 28 10 15 1017.3 1017.5 0.6
25/03:30pm 10.4 5.9 6.2 75 2.0 SW 19 24 10 13 1017.3 1017.5 0.6
25/03:00pm 11.8 7.1 6.1 68 2.7 SSW 20 28 11 15 1017.0 1017.2 0.6
25/02:30pm 12.2 6.8 6.3 67 2.8 SSW 24 32 13 17 1016.8 1017.0 0.6
25/02:00pm 12.4 7.8 5.8 64 3.1 SW 19 30 10 16 1016.6 1016.8 0.6
25/01:30pm 11.6 7.5 6.3 70 2.5 SSW 17 24 9 13 1016.6 1016.8 0.6
25/01:00pm 12.1 7.6 6.2 67 2.8 SSW 19 28 10 15 1016.7 1016.9 0.6
25/12:30pm 11.2 6.6 6.3 72 2.3 SSW 20 33 11 18 1016.8 1017.0 0.4
25/12:00pm 11.5 7.0 7.0 74 2.2 SW 20 28 11 15 1016.8 1017.0 0.4
25/11:30am 11.6 7.5 7.7 77 1.9 SSW 19 26 10 14 1016.9 1017.1 0.4
25/11:00am 10.0 7.5 8.1 88 0.9 SW 11 20 6 11 1016.9 1017.1 0.4
25/10:30am 10.1 6.8 6.6 79 1.6 SW 13 19 7 10 1016.8 1017.0 0.0
25/10:00am 9.4 7.8 7.8 90 0.8 WSW 6 9 3 5 1016.7 1016.9 0.0
25/09:30am 8.9 6.8 8.3 96 0.3 W 9 13 5 7 1016.5 1016.7 0.0
25/09:00am 7.9 5.7 7.9 100 0.0 W 9 15 5 8 1016.4 1016.6 3.8
25/08:30am 6.9 4.1 6.9 100 0.0 W 11 15 6 8 1016.2 1016.4 3.8
25/08:00am 6.0 3.0 6.0 100 0.0 W 11 13 6 7 1015.9 1016.1 3.8
25/07:30am 5.6 3.5 5.6 100 0.0 W 6 11 3 6 1015.5 1015.7 3.8
25/07:00am 4.8 2.5 4.8 100 0.0 WSW 6 9 3 5 1015.4 1015.6 3.4
25/06:30am 4.4 1.8 4.4 100 0.0 W 7 11 4 6 1015.0 1015.2 3.4
25/06:00am 4.8 2.3 4.8 100 0.0 WSW 7 9 4 5 1014.7 1014.8 3.4
25/05:30am 3.5 0.8 3.5 100 0.0 WNW 7 13 4 7 1014.4 1014.5 3.2
25/05:00am 3.0 0.4 3.0 100 0.0 WNW 6 7 3 4 1014.1 1014.2 3.2
25/04:30am 4.0 1.9 4.0 100 0.0 W 4 6 2 3 1014.1 1014.2 3.2
25/04:00am 5.2 3.0 5.2 100 0.0 W 6 7 3 4 1014.1 1014.2 3.2
25/03:30am 5.3 2.9 5.3 100 0.0 WNW 7 11 4 6 1014.0 1014.1 3.2
25/03:00am 5.7 3.4 5.7 100 0.0 W 7 9 4 5 1014.2 1014.3 2.6
25/02:30am 6.0 3.4 6.0 100 0.0 W 9 15 5 8 1014.5 1014.6 2.2
25/02:00am 5.3 3.1 5.3 100 0.0 W 6 7 3 4 1014.6 1014.7 0.6
25/01:30am 5.2 2.8 5.2 100 0.0 WSW 7 9 4 5 1014.6 1014.7 0.6
25/01:00am 4.3 2.3 4.3 100 0.0 WSW 4 6 2 3 1014.8 1015.0 0.2
25/12:30am 4.1 2.4 4.1 100 0.0 WSW 2 4 1 2 1014.9 1015.1 0.2
25/12:00am 3.8 1.1 3.8 100 0.0 WSW 7 9 4 5 1015.1 1015.3 0.0
 
Date/Time
EST
Temp
°C
App
Temp
°C
Dew
Point
°C
Rel
Hum
%
Delta-T
°C
Wind Press
QNH
hPa
Press
MSL
hPa
Rain since
9am
mm
Dir  Spd
km/h
Gust
km/h
Spd
kts
Gust
kts
24/11:30pm 3.1 0.3 3.1 100 0.0 WSW 7 9 4 5 1015.1 1015.3 0.0
24/11:00pm 2.2 -0.6 2.2 100 0.0 WSW 6 6 3 3 1015.3 1015.5 0.0
24/10:30pm 1.7 -0.8 1.6 99 0.0 WSW 4 6 2 3 1015.2 1015.4 0.0
24/10:00pm 4.1 2.4 4.0 99 0.0 WSW 2 4 1 2 1015.5 1015.7 0.0
24/09:30pm 5.3 3.5 5.2 99 0.0 WSW 4 7 2 4 1015.7 1015.9 0.0
24/09:00pm 5.7 3.0 5.7 100 0.0 SW 9 11 5 6 1015.7 1015.9 0.0
24/08:30pm 4.6 1.6 4.0 96 0.3 SW 9 11 5 6 1015.7 1015.9 0.0
24/08:00pm 4.8 2.1 3.9 94 0.4 WSW 7 9 4 5 1015.6 1015.8 0.0
24/07:30pm 4.7 1.6 3.5 92 0.5 SW 9 11 5 6 1015.6 1015.8 0.0
24/07:00pm 6.0 3.0 4.0 87 0.9 S 9 11 5 6 1015.4 1015.6 0.0
24/06:30pm 7.5 3.9 5.0 84 1.1 S 13 17 7 9 1015.3 1015.5 0.0
24/06:00pm 8.7 5.6 5.4 80 1.5 SSW 11 17 6 9 1015.2 1015.4 0.0
24/05:30pm 8.9 5.0 5.3 78 1.6 SSW 15 20 8 11 1015.1 1015.3 0.0
24/05:00pm 9.2 5.3 5.2 76 1.8 SSW 15 20 8 11 1014.9 1015.1 0.0
24/04:30pm 9.5 6.0 5.3 75 1.9 S 13 19 7 10 1014.8 1015.0 0.0
24/04:00pm 9.6 6.1 5.4 75 1.9 S 13 17 7 9 1014.8 1015.0 0.0
24/03:30pm 9.4 6.2 6.7 83 1.3 S 13 22 7 12 1014.9 1015.1 0.0
24/03:00pm 9.2 5.6 6.6 84 1.2 S 15 22 8 12 1014.8 1015.0 0.0
24/02:30pm 8.6 4.6 6.6 87 0.9 S 17 28 9 15 1014.9 1015.1 0.0
24/02:00pm 9.6 7.8 8.0 90 0.8 S 7 13 4 7 1015.0 1015.2 0.0
24/01:30pm 9.5 6.8 7.4 87 1.0 S 11 19 6 10 1015.2 1015.4 0.0
24/01:00pm 8.5 4.5 6.6 88 0.9 S 17 22 9 12 1015.5 1015.7 0.0
24/12:30pm 9.6 6.1 7.4 86 1.1 SSW 15 20 8 11 1015.7 1015.9 0.0
24/12:00pm 10.0 6.5 5.6 74 2.0 SSW 13 17 7 9 1016.0 1016.2 0.0
24/11:30am 9.7 6.7 6.1 78 1.7 SSW 11 17 6 9 1016.4 1016.6 0.0
24/11:00am 9.3 6.2 5.7 78 1.6 S 11 15 6 8 1016.4 1016.6 0.0
24/10:30am 8.9 7.4 8.3 96 0.3 ESE 6 9 3 5 1016.8 1017.0 0.0
24/10:00am 7.3 5.9 7.3 100 0.0 NNE 4 6 2 3 1016.9 1017.1 0.0
24/09:30am 5.9 4.2 5.9 100 0.0 NNE 4 6 2 3 1017.2 1017.4 0.0
24/09:00am 4.1 2.0 4.1 100 0.0 NNE 4 6 2 3 1017.2 1017.4 0.2
24/08:30am 2.8 0.1 2.8 100 0.0 NNE 6 6 3 3 1017.2 1017.4 0.2
24/08:00am 1.0 -1.6 1.0 100 0.0 NNE 4 4 2 2 1017.1 1017.3 0.2
24/07:30am 0.3 -2.4 0.3 100 0.0 NNE 4 7 2 4 1017.0 1017.2 0.2
24/07:00am 1.1 -1.5 1.1 100 0.0 NNE 4 9 2 5 1016.9 1017.1 0.2
24/06:30am 1.8 -0.3 1.8 100 0.0 NNE 2 4 1 2 1016.8 1017.0 0.2
24/06:00am 1.2 -1.9 1.2 100 0.0 NNE 7 9 4 5 1016.5 1016.7 0.2
24/05:30am 1.2 -1.4 1.2 100 0.0 NNE 4 4 2 2 1016.7 1016.9 0.2
24/05:00am 1.7 -0.8 1.7 100 0.0 SE 4 7 2 4 1016.8 1017.0 0.2
24/04:30am 1.5 -1.4 1.5 100 0.0 SSE 6 6 3 3 1016.8 1017.0 0.2
24/04:00am 1.1 -1.5 1.1 100 0.0 SSE 4 6 2 3 1016.8 1017.0 0.2
24/03:30am 0.2 -2.9 0.2 100 0.0 SSE 6 6 3 3 1016.9 1017.1 0.2
24/03:00am -0.6 -3.8 -0.6 100 0.0 SSE 6 6 3 3 1017.1 1017.3 0.2
24/02:30am -0.2 -3.0 -0.2 100 0.0 SSE 4 4 2 2 1017.2 1017.4 0.2
24/02:00am -0.1 -2.9 -0.1 100 0.0 SSE 4 4 2 2 1017.4 1017.6 0.2
24/01:30am -0.5 -3.3 -0.5 100 0.0 SSE 4 4 2 2 1017.6 1017.8 0.2
24/01:00am 0.6 -2.1 0.6 100 0.0 SSE 4 4 2 2 1017.7 1017.9 0.2
24/12:30am 0.3 -2.4 0.2 99 0.0 SSE 4 6 2 3 1017.7 1017.9 0.2
24/12:00am 1.2 -1.4 1.2 100 0.0 SSE 4 4 2 2 1017.8 1018.0 0.2
 
Date/Time
EST
Temp
°C
App
Temp
°C
Dew
Point
°C
Rel
Hum
%
Delta-T
°C
Wind Press
QNH
hPa
Press
MSL
hPa
Rain since
9am
mm
Dir  Spd
km/h
Gust
km/h
Spd
kts
Gust
kts
23/11:30pm 0.6 -2.5 0.2 97 0.1 SSE 6 6 3 3 1017.8 1018.0 0.2
23/11:00pm 2.2 0.5 1.6 96 0.2 CALM 0 2 0 1 1017.9 1018.1 0.2
23/10:30pm 3.5 1.2 2.8 95 0.3 SSE 4 6 2 3 1017.9 1018.1 0.2
23/10:00pm 3.6 1.3 2.6 93 0.4 SSE 4 6 2 3 1018.0 1018.2 0.2
23/09:30pm 3.5 1.4 1.9 89 0.6 SSE 2 2 1 1 1018.0 1018.2 0.2
23/09:00pm 3.9 1.4 1.8 86 0.8 SSE 4 4 2 2 1018.1 1018.3 0.2
23/08:30pm 4.2 1.2 1.9 85 0.9 SSE 7 7 4 4 1018.0 1018.2 0.2
23/08:00pm 5.4 1.7 2.6 82 1.1 SSE 11 13 6 7 1017.8 1018.0 0.2
23/07:30pm 6.5 3.0 3.7 82 1.2 SSE 11 11 6 6 1017.9 1018.1 0.2
23/07:00pm 6.5 3.8 3.7 82 1.2 SSE 7 9 4 5 1018.0 1018.2 0.2
23/06:30pm 7.0 4.4 4.1 82 1.3 SSE 7 9 4 5 1017.9 1018.1 0.2
23/06:00pm 7.3 3.8 3.4 76 1.7 SSE 11 13 6 7 1017.8 1018.0 0.2
23/05:30pm 9.3 6.6 3.7 68 2.5 SSE 7 9 4 5 1017.7 1017.9 0.2
23/05:00pm 10.6 7.0 3.2 60 3.2 SSE 11 15 6 8 1017.5 1017.7 0.2

Other Formats:

Comma delimited format used in spreadsheet applications
http://www.bom.gov.au/fwo/IDV60801/IDV60801.94840.axf

JavaScript Object Notation format (JSON) in row-major order
http://www.bom.gov.au/fwo/IDV60801/IDV60801.94840.json